sensor_id;sensor_type;location;lat;lon;timestamp;P1;durP1;ratioP1;P2;durP2;ratioP2
53781;SDS011;39692;53.114;7.060;2022-08-01T00:01:47;8.73;;;5.72;;
53781;SDS011;39692;53.114;7.060;2022-08-01T00:04:12;7.50;;;5.75;;
53781;SDS011;39692;53.114;7.060;2022-08-01T00:06:38;7.78;;;5.10;;
53781;SDS011;39692;53.114;7.060;2022-08-01T00:09:04;9.02;;;5.38;;
53781;SDS011;39692;53.114;7.060;2022-08-01T00:11:29;7.57;;;5.60;;
53781;SDS011;39692;53.114;7.060;2022-08-01T00:13:55;7.95;;;5.18;;
53781;SDS011;39692;53.114;7.060;2022-08-01T00:16:21;7.65;;;4.85;;
53781;SDS011;39692;53.114;7.060;2022-08-01T00:18:48;6.13;;;4.65;;
53781;SDS011;39692;53.114;7.060;2022-08-01T00:21:15;7.40;;;4.80;;
53781;SDS011;39692;53.114;7.060;2022-08-01T00:23:41;9.52;;;4.72;;
53781;SDS011;39692;53.114;7.060;2022-08-01T00:26:06;6.80;;;4.07;;
53781;SDS011;39692;53.114;7.060;2022-08-01T00:28:32;7.40;;;4.47;;
53781;SDS011;39692;53.114;7.060;2022-08-01T00:30:58;6.07;;;3.78;;
53781;SDS011;39692;53.114;7.060;2022-08-01T00:33:24;7.40;;;4.15;;
53781;SDS011;39692;53.114;7.060;2022-08-01T00:35:50;7.00;;;3.90;;
53781;SDS011;39692;53.114;7.060;2022-08-01T00:38:16;5.30;;;4.03;;
53781;SDS011;39692;53.114;7.060;2022-08-01T00:40:42;5.80;;;3.90;;
53781;SDS011;39692;53.114;7.060;2022-08-01T00:43:09;5.28;;;4.07;;
53781;SDS011;39692;53.114;7.060;2022-08-01T00:45:34;8.52;;;4.45;;
53781;SDS011;39692;53.114;7.060;2022-08-01T00:48:00;6.97;;;4.53;;
53781;SDS011;39692;53.114;7.060;2022-08-01T00:50:26;6.90;;;4.25;;
53781;SDS011;39692;53.114;7.060;2022-08-01T00:52:52;8.65;;;5.13;;
53781;SDS011;39692;53.114;7.060;2022-08-01T00:55:19;8.50;;;5.15;;
53781;SDS011;39692;53.114;7.060;2022-08-01T00:57:45;7.10;;;4.88;;
53781;SDS011;39692;53.114;7.060;2022-08-01T01:00:12;6.00;;;3.72;;
53781;SDS011;39692;53.114;7.060;2022-08-01T01:02:39;7.45;;;4.00;;
53781;SDS011;39692;53.114;7.060;2022-08-01T01:05:05;6.15;;;3.72;;
53781;SDS011;39692;53.114;7.060;2022-08-01T01:10:05;6.45;;;3.88;;
53781;SDS011;39692;53.114;7.060;2022-08-01T01:12:44;7.78;;;4.40;;
53781;SDS011;39692;53.114;7.060;2022-08-01T01:15:18;6.90;;;4.47;;
53781;SDS011;39692;53.114;7.060;2022-08-01T01:17:52;5.25;;;4.15;;
53781;SDS011;39692;53.114;7.060;2022-08-01T01:20:30;7.95;;;4.20;;
53781;SDS011;39692;53.114;7.060;2022-08-01T01:23:21;8.35;;;4.13;;
53781;SDS011;39692;53.114;7.060;2022-08-01T01:26:21;7.45;;;4.40;;
53781;SDS011;39692;53.114;7.060;2022-08-01T01:29:25;6.45;;;3.95;;
53781;SDS011;39692;53.114;7.060;2022-08-01T01:32:17;5.63;;;4.00;;
53781;SDS011;39692;53.114;7.060;2022-08-01T01:35:06;8.63;;;3.60;;
53781;SDS011;39692;53.114;7.060;2022-08-01T01:37:35;4.97;;;3.60;;
53781;SDS011;39692;53.114;7.060;2022-08-01T01:40:04;5.85;;;3.88;;
53781;SDS011;39692;53.114;7.060;2022-08-01T01:42:31;7.88;;;4.00;;
53781;SDS011;39692;53.114;7.060;2022-08-01T01:44:58;7.28;;;3.67;;
53781;SDS011;39692;53.114;7.060;2022-08-01T01:47:25;7.65;;;3.50;;
53781;SDS011;39692;53.114;7.060;2022-08-01T01:49:52;5.40;;;3.40;;
53781;SDS011;39692;53.114;7.060;2022-08-01T01:52:20;7.63;;;3.50;;
53781;SDS011;39692;53.114;7.060;2022-08-01T01:54:49;6.85;;;3.38;;
53781;SDS011;39692;53.114;7.060;2022-08-01T01:57:16;5.40;;;2.65;;
53781;SDS011;39692;53.114;7.060;2022-08-01T01:59:44;6.03;;;3.47;;
53781;SDS011;39692;53.114;7.060;2022-08-01T02:02:11;7.43;;;3.40;;
53781;SDS011;39692;53.114;7.060;2022-08-01T02:04:42;7.15;;;3.38;;
53781;SDS011;39692;53.114;7.060;2022-08-01T02:07:12;4.13;;;3.25;;
53781;SDS011;39692;53.114;7.060;2022-08-01T02:09:42;5.03;;;3.00;;
53781;SDS011;39692;53.114;7.060;2022-08-01T02:12:11;4.50;;;3.33;;
53781;SDS011;39692;53.114;7.060;2022-08-01T02:14:39;7.03;;;3.40;;
53781;SDS011;39692;53.114;7.060;2022-08-01T02:17:07;4.38;;;2.92;;
53781;SDS011;39692;53.114;7.060;2022-08-01T02:19:36;4.50;;;3.20;;
53781;SDS011;39692;53.114;7.060;2022-08-01T02:22:08;4.90;;;3.28;;
53781;SDS011;39692;53.114;7.060;2022-08-01T02:24:53;4.53;;;2.90;;
53781;SDS011;39692;53.114;7.060;2022-08-01T02:30:33;3.72;;;2.67;;
53781;SDS011;39692;53.114;7.060;2022-08-01T02:35:37;4.63;;;2.90;;
53781;SDS011;39692;53.114;7.060;2022-08-01T02:38:05;6.32;;;3.08;;
53781;SDS011;39692;53.114;7.060;2022-08-01T02:40:35;4.10;;;2.83;;
53781;SDS011;39692;53.114;7.060;2022-08-01T02:43:05;6.40;;;3.22;;
53781;SDS011;39692;53.114;7.060;2022-08-01T02:45:31;6.28;;;3.15;;
53781;SDS011;39692;53.114;7.060;2022-08-01T02:48:08;5.80;;;2.92;;
53781;SDS011;39692;53.114;7.060;2022-08-01T02:50:36;7.63;;;3.20;;
53781;SDS011;39692;53.114;7.060;2022-08-01T02:53:03;5.30;;;3.40;;
53781;SDS011;39692;53.114;7.060;2022-08-01T02:55:32;6.80;;;3.38;;
53781;SDS011;39692;53.114;7.060;2022-08-01T02:57:59;5.05;;;3.10;;
53781;SDS011;39692;53.114;7.060;2022-08-01T03:00:27;7.00;;;3.00;;
53781;SDS011;39692;53.114;7.060;2022-08-01T03:02:54;7.13;;;3.10;;
53781;SDS011;39692;53.114;7.060;2022-08-01T03:05:22;4.25;;;2.28;;
53781;SDS011;39692;53.114;7.060;2022-08-01T03:07:50;4.40;;;2.33;;
53781;SDS011;39692;53.114;7.060;2022-08-01T03:10:18;5.78;;;2.78;;
53781;SDS011;39692;53.114;7.060;2022-08-01T03:12:44;6.53;;;2.58;;
53781;SDS011;39692;53.114;7.060;2022-08-01T03:15:12;8.00;;;3.90;;
53781;SDS011;39692;53.114;7.060;2022-08-01T03:17:39;9.38;;;2.97;;
53781;SDS011;39692;53.114;7.060;2022-08-01T03:20:06;6.18;;;2.92;;
53781;SDS011;39692;53.114;7.060;2022-08-01T03:22:35;8.35;;;3.20;;
53781;SDS011;39692;53.114;7.060;2022-08-01T03:25:04;5.40;;;2.92;;
53781;SDS011;39692;53.114;7.060;2022-08-01T03:27:31;5.40;;;2.58;;
53781;SDS011;39692;53.114;7.060;2022-08-01T03:30:00;7.32;;;2.78;;
53781;SDS011;39692;53.114;7.060;2022-08-01T03:32:29;5.60;;;2.40;;
53781;SDS011;39692;53.114;7.060;2022-08-01T03:34:56;9.00;;;3.40;;
53781;SDS011;39692;53.114;7.060;2022-08-01T03:37:41;7.80;;;3.10;;
53781;SDS011;39692;53.114;7.060;2022-08-01T03:42:50;12.32;;;4.57;;
53781;SDS011;39692;53.114;7.060;2022-08-01T03:47:52;14.38;;;3.67;;
53781;SDS011;39692;53.114;7.060;2022-08-01T03:50:24;12.07;;;3.88;;
53781;SDS011;39692;53.114;7.060;2022-08-01T03:52:52;11.10;;;3.80;;
53781;SDS011;39692;53.114;7.060;2022-08-01T03:55:19;8.65;;;3.92;;
53781;SDS011;39692;53.114;7.060;2022-08-01T03:57:46;8.60;;;4.13;;
53781;SDS011;39692;53.114;7.060;2022-08-01T04:00:13;11.55;;;4.75;;
53781;SDS011;39692;53.114;7.060;2022-08-01T04:02:43;10.73;;;4.85;;
53781;SDS011;39692;53.114;7.060;2022-08-01T04:05:14;8.93;;;4.65;;
53781;SDS011;39692;53.114;7.060;2022-08-01T04:07:44;9.80;;;5.00;;
53781;SDS011;39692;53.114;7.060;2022-08-01T04:10:11;11.60;;;4.43;;
53781;SDS011;39692;53.114;7.060;2022-08-01T04:12:37;15.30;;;5.40;;
53781;SDS011;39692;53.114;7.060;2022-08-01T04:15:03;11.88;;;4.78;;
53781;SDS011;39692;53.114;7.060;2022-08-01T04:17:30;9.57;;;4.70;;
53781;SDS011;39692;53.114;7.060;2022-08-01T04:19:56;13.75;;;4.97;;
53781;SDS011;39692;53.114;7.060;2022-08-01T04:22:21;10.13;;;4.30;;
53781;SDS011;39692;53.114;7.060;2022-08-01T04:24:48;10.15;;;4.05;;
53781;SDS011;39692;53.114;7.060;2022-08-01T04:27:20;8.88;;;3.88;;
53781;SDS011;39692;53.114;7.060;2022-08-01T04:29:52;9.10;;;3.60;;
53781;SDS011;39692;53.114;7.060;2022-08-01T04:32:18;10.20;;;3.35;;
53781;SDS011;39692;53.114;7.060;2022-08-01T04:34:46;9.80;;;3.70;;
53781;SDS011;39692;53.114;7.060;2022-08-01T04:37:14;9.35;;;3.45;;
53781;SDS011;39692;53.114;7.060;2022-08-01T04:39:42;8.80;;;3.80;;
53781;SDS011;39692;53.114;7.060;2022-08-01T04:42:09;8.35;;;3.55;;
53781;SDS011;39692;53.114;7.060;2022-08-01T04:44:36;7.40;;;3.63;;
53781;SDS011;39692;53.114;7.060;2022-08-01T04:47:02;9.02;;;3.40;;
53781;SDS011;39692;53.114;7.060;2022-08-01T04:49:32;12.00;;;3.80;;
53781;SDS011;39692;53.114;7.060;2022-08-01T04:51:59;7.22;;;3.35;;
53781;SDS011;39692;53.114;7.060;2022-08-01T04:54:29;9.82;;;3.38;;
53781;SDS011;39692;53.114;7.060;2022-08-01T04:56:58;10.57;;;3.83;;
53781;SDS011;39692;53.114;7.060;2022-08-01T04:59:27;11.63;;;3.50;;
53781;SDS011;39692;53.114;7.060;2022-08-01T05:02:06;8.02;;;3.55;;
53781;SDS011;39692;53.114;7.060;2022-08-01T05:04:32;11.80;;;3.97;;
53781;SDS011;39692;53.114;7.060;2022-08-01T05:06:59;11.88;;;4.00;;
53781;SDS011;39692;53.114;7.060;2022-08-01T05:09:25;9.00;;;3.45;;
53781;SDS011;39692;53.114;7.060;2022-08-01T05:11:51;8.73;;;3.80;;
53781;SDS011;39692;53.114;7.060;2022-08-01T05:14:16;13.80;;;3.72;;
53781;SDS011;39692;53.114;7.060;2022-08-01T05:16:42;10.18;;;3.50;;
53781;SDS011;39692;53.114;7.060;2022-08-01T05:19:09;8.35;;;3.40;;
53781;SDS011;39692;53.114;7.060;2022-08-01T05:21:35;11.88;;;3.50;;
53781;SDS011;39692;53.114;7.060;2022-08-01T05:24:01;9.63;;;3.13;;
53781;SDS011;39692;53.114;7.060;2022-08-01T05:26:27;10.27;;;3.65;;
53781;SDS011;39692;53.114;7.060;2022-08-01T05:28:53;9.55;;;3.40;;
53781;SDS011;39692;53.114;7.060;2022-08-01T05:31:18;11.40;;;3.67;;
53781;SDS011;39692;53.114;7.060;2022-08-01T05:33:44;14.32;;;4.47;;
53781;SDS011;39692;53.114;7.060;2022-08-01T05:36:10;11.90;;;3.80;;
53781;SDS011;39692;53.114;7.060;2022-08-01T05:38:35;12.25;;;3.97;;
53781;SDS011;39692;53.114;7.060;2022-08-01T05:41:01;8.98;;;3.42;;
53781;SDS011;39692;53.114;7.060;2022-08-01T05:43:27;14.20;;;3.60;;
53781;SDS011;39692;53.114;7.060;2022-08-01T05:45:52;12.75;;;4.55;;
53781;SDS011;39692;53.114;7.060;2022-08-01T05:48:18;9.30;;;3.50;;
53781;SDS011;39692;53.114;7.060;2022-08-01T05:50:43;11.95;;;3.55;;
53781;SDS011;39692;53.114;7.060;2022-08-01T05:53:09;9.50;;;3.70;;
53781;SDS011;39692;53.114;7.060;2022-08-01T05:55:35;11.13;;;4.15;;
53781;SDS011;39692;53.114;7.060;2022-08-01T05:58:01;12.20;;;3.50;;
53781;SDS011;39692;53.114;7.060;2022-08-01T06:00:27;13.25;;;4.25;;
53781;SDS011;39692;53.114;7.060;2022-08-01T06:02:53;13.55;;;4.20;;
53781;SDS011;39692;53.114;7.060;2022-08-01T06:05:19;12.57;;;4.50;;
53781;SDS011;39692;53.114;7.060;2022-08-01T06:07:44;11.65;;;4.15;;
53781;SDS011;39692;53.114;7.060;2022-08-01T06:10:10;13.30;;;3.92;;
53781;SDS011;39692;53.114;7.060;2022-08-01T06:12:36;11.68;;;4.22;;
53781;SDS011;39692;53.114;7.060;2022-08-01T06:15:05;11.85;;;4.30;;
53781;SDS011;39692;53.114;7.060;2022-08-01T06:17:31;13.77;;;4.15;;
53781;SDS011;39692;53.114;7.060;2022-08-01T06:19:57;14.48;;;4.72;;
53781;SDS011;39692;53.114;7.060;2022-08-01T06:22:24;12.05;;;4.88;;
53781;SDS011;39692;53.114;7.060;2022-08-01T06:24:50;11.10;;;3.97;;
53781;SDS011;39692;53.114;7.060;2022-08-01T06:27:15;15.85;;;3.95;;
53781;SDS011;39692;53.114;7.060;2022-08-01T06:29:41;10.27;;;3.80;;
53781;SDS011;39692;53.114;7.060;2022-08-01T06:32:08;10.57;;;4.82;;
53781;SDS011;39692;53.114;7.060;2022-08-01T06:34:34;12.13;;;4.32;;
53781;SDS011;39692;53.114;7.060;2022-08-01T06:37:00;13.45;;;4.20;;
53781;SDS011;39692;53.114;7.060;2022-08-01T06:39:26;10.85;;;3.75;;
53781;SDS011;39692;53.114;7.060;2022-08-01T06:41:52;10.85;;;4.15;;
53781;SDS011;39692;53.114;7.060;2022-08-01T06:44:17;13.35;;;3.75;;
53781;SDS011;39692;53.114;7.060;2022-08-01T06:46:43;11.60;;;4.60;;
53781;SDS011;39692;53.114;7.060;2022-08-01T06:49:09;14.20;;;3.90;;
53781;SDS011;39692;53.114;7.060;2022-08-01T06:51:34;11.40;;;4.15;;
53781;SDS011;39692;53.114;7.060;2022-08-01T06:54:00;12.82;;;4.05;;
53781;SDS011;39692;53.114;7.060;2022-08-01T06:56:26;11.13;;;4.20;;
53781;SDS011;39692;53.114;7.060;2022-08-01T06:58:51;10.63;;;4.20;;
53781;SDS011;39692;53.114;7.060;2022-08-01T07:01:17;12.35;;;4.20;;
53781;SDS011;39692;53.114;7.060;2022-08-01T07:03:43;8.55;;;3.58;;
53781;SDS011;39692;53.114;7.060;2022-08-01T07:06:08;13.50;;;3.58;;
53781;SDS011;39692;53.114;7.060;2022-08-01T07:08:35;8.93;;;3.85;;
53781;SDS011;39692;53.114;7.060;2022-08-01T07:11:01;11.77;;;3.83;;
53781;SDS011;39692;53.114;7.060;2022-08-01T07:13:28;12.90;;;4.65;;
53781;SDS011;39692;53.114;7.060;2022-08-01T07:15:55;12.63;;;4.13;;
53781;SDS011;39692;53.114;7.060;2022-08-01T07:18:22;10.63;;;3.28;;
53781;SDS011;39692;53.114;7.060;2022-08-01T07:20:48;9.23;;;3.55;;
53781;SDS011;39692;53.114;7.060;2022-08-01T07:23:14;13.90;;;4.15;;
53781;SDS011;39692;53.114;7.060;2022-08-01T07:25:40;10.18;;;4.10;;
53781;SDS011;39692;53.114;7.060;2022-08-01T07:28:06;11.13;;;3.80;;
53781;SDS011;39692;53.114;7.060;2022-08-01T07:30:31;9.68;;;3.45;;
53781;SDS011;39692;53.114;7.060;2022-08-01T07:32:57;10.45;;;4.13;;
53781;SDS011;39692;53.114;7.060;2022-08-01T07:35:23;10.85;;;3.65;;
53781;SDS011;39692;53.114;7.060;2022-08-01T07:37:48;10.30;;;3.60;;
53781;SDS011;39692;53.114;7.060;2022-08-01T07:40:14;12.50;;;3.75;;
53781;SDS011;39692;53.114;7.060;2022-08-01T07:42:42;10.43;;;3.30;;
53781;SDS011;39692;53.114;7.060;2022-08-01T07:45:09;9.15;;;2.63;;
53781;SDS011;39692;53.114;7.060;2022-08-01T07:47:35;9.07;;;3.45;;
53781;SDS011;39692;53.114;7.060;2022-08-01T07:50:01;13.15;;;3.35;;
53781;SDS011;39692;53.114;7.060;2022-08-01T07:52:28;8.32;;;3.33;;
53781;SDS011;39692;53.114;7.060;2022-08-01T07:54:55;11.30;;;3.45;;
53781;SDS011;39692;53.114;7.060;2022-08-01T07:57:21;10.27;;;3.20;;
53781;SDS011;39692;53.114;7.060;2022-08-01T07:59:48;12.35;;;3.17;;
53781;SDS011;39692;53.114;7.060;2022-08-01T08:02:14;7.50;;;3.30;;
53781;SDS011;39692;53.114;7.060;2022-08-01T08:04:40;11.73;;;3.42;;
53781;SDS011;39692;53.114;7.060;2022-08-01T08:07:06;10.45;;;3.08;;
53781;SDS011;39692;53.114;7.060;2022-08-01T08:09:32;10.95;;;2.97;;
53781;SDS011;39692;53.114;7.060;2022-08-01T08:11:58;14.40;;;3.50;;
53781;SDS011;39692;53.114;7.060;2022-08-01T08:14:24;9.88;;;3.13;;
53781;SDS011;39692;53.114;7.060;2022-08-01T08:16:50;9.18;;;3.05;;
53781;SDS011;39692;53.114;7.060;2022-08-01T08:19:16;7.03;;;2.95;;
53781;SDS011;39692;53.114;7.060;2022-08-01T08:21:42;12.05;;;3.35;;
53781;SDS011;39692;53.114;7.060;2022-08-01T08:24:08;5.88;;;3.00;;
53781;SDS011;39692;53.114;7.060;2022-08-01T08:26:52;10.60;;;3.40;;
53781;SDS011;39692;53.114;7.060;2022-08-01T08:29:19;13.18;;;3.10;;
53781;SDS011;39692;53.114;7.060;2022-08-01T08:31:46;6.80;;;2.45;;
53781;SDS011;39692;53.114;7.060;2022-08-01T08:34:12;10.35;;;2.60;;
53781;SDS011;39692;53.114;7.060;2022-08-01T08:36:38;10.90;;;2.47;;
53781;SDS011;39692;53.114;7.060;2022-08-01T08:39:04;7.43;;;2.53;;
53781;SDS011;39692;53.114;7.060;2022-08-01T08:41:30;11.18;;;2.70;;
53781;SDS011;39692;53.114;7.060;2022-08-01T08:44:02;6.65;;;2.67;;
53781;SDS011;39692;53.114;7.060;2022-08-01T08:46:30;6.40;;;1.80;;
53781;SDS011;39692;53.114;7.060;2022-08-01T08:48:58;6.88;;;2.35;;
53781;SDS011;39692;53.114;7.060;2022-08-01T08:51:26;6.47;;;2.45;;
53781;SDS011;39692;53.114;7.060;2022-08-01T08:53:55;5.78;;;2.25;;
53781;SDS011;39692;53.114;7.060;2022-08-01T08:56:23;6.68;;;2.30;;
53781;SDS011;39692;53.114;7.060;2022-08-01T08:58:49;5.75;;;2.20;;
53781;SDS011;39692;53.114;7.060;2022-08-01T09:01:16;8.32;;;2.63;;
53781;SDS011;39692;53.114;7.060;2022-08-01T09:03:42;9.18;;;2.58;;
53781;SDS011;39692;53.114;7.060;2022-08-01T09:06:08;6.07;;;2.28;;
53781;SDS011;39692;53.114;7.060;2022-08-01T09:08:35;8.90;;;2.38;;
53781;SDS011;39692;53.114;7.060;2022-08-01T09:11:01;6.70;;;1.95;;
53781;SDS011;39692;53.114;7.060;2022-08-01T09:13:29;7.82;;;2.20;;
53781;SDS011;39692;53.114;7.060;2022-08-01T09:15:55;6.78;;;2.00;;
53781;SDS011;39692;53.114;7.060;2022-08-01T09:18:37;6.00;;;2.10;;
53781;SDS011;39692;53.114;7.060;2022-08-01T09:23:38;9.73;;;2.25;;
53781;SDS011;39692;53.114;7.060;2022-08-01T09:26:07;10.23;;;2.47;;
53781;SDS011;39692;53.114;7.060;2022-08-01T09:28:34;6.47;;;2.45;;
53781;SDS011;39692;53.114;7.060;2022-08-01T09:31:05;7.10;;;2.00;;
53781;SDS011;39692;53.114;7.060;2022-08-01T09:36:24;6.32;;;2.10;;
53781;SDS011;39692;53.114;7.060;2022-08-01T09:38:52;8.93;;;2.92;;
53781;SDS011;39692;53.114;7.060;2022-08-01T09:41:31;6.43;;;2.03;;
53781;SDS011;39692;53.114;7.060;2022-08-01T09:43:57;10.88;;;2.33;;
53781;SDS011;39692;53.114;7.060;2022-08-01T09:46:24;7.55;;;2.40;;
53781;SDS011;39692;53.114;7.060;2022-08-01T09:49:03;6.28;;;1.98;;
53781;SDS011;39692;53.114;7.060;2022-08-01T09:51:34;3.67;;;1.77;;
53781;SDS011;39692;53.114;7.060;2022-08-01T09:54:02;7.05;;;2.38;;
53781;SDS011;39692;53.114;7.060;2022-08-01T09:56:36;5.63;;;1.88;;
53781;SDS011;39692;53.114;7.060;2022-08-01T09:59:07;5.55;;;1.90;;
53781;SDS011;39692;53.114;7.060;2022-08-01T10:01:46;4.53;;;1.80;;
53781;SDS011;39692;53.114;7.060;2022-08-01T10:04:17;7.32;;;1.92;;
53781;SDS011;39692;53.114;7.060;2022-08-01T10:06:49;5.25;;;1.50;;
53781;SDS011;39692;53.114;7.060;2022-08-01T10:09:32;6.20;;;1.90;;
53781;SDS011;39692;53.114;7.060;2022-08-01T10:12:01;6.32;;;1.77;;
53781;SDS011;39692;53.114;7.060;2022-08-01T10:14:27;4.82;;;2.00;;
53781;SDS011;39692;53.114;7.060;2022-08-01T10:16:55;5.50;;;2.05;;
53781;SDS011;39692;53.114;7.060;2022-08-01T10:19:24;7.88;;;2.00;;
53781;SDS011;39692;53.114;7.060;2022-08-01T10:21:51;6.00;;;1.77;;
53781;SDS011;39692;53.114;7.060;2022-08-01T10:24:19;6.53;;;1.95;;
53781;SDS011;39692;53.114;7.060;2022-08-01T10:26:50;6.05;;;1.55;;
53781;SDS011;39692;53.114;7.060;2022-08-01T10:29:19;5.70;;;1.48;;
53781;SDS011;39692;53.114;7.060;2022-08-01T10:31:46;6.90;;;1.73;;
53781;SDS011;39692;53.114;7.060;2022-08-01T10:34:13;8.35;;;2.47;;
53781;SDS011;39692;53.114;7.060;2022-08-01T10:36:42;7.45;;;2.38;;
53781;SDS011;39692;53.114;7.060;2022-08-01T10:39:12;6.00;;;1.83;;
53781;SDS011;39692;53.114;7.060;2022-08-01T10:41:38;7.72;;;2.28;;
53781;SDS011;39692;53.114;7.060;2022-08-01T10:44:08;4.30;;;1.58;;
53781;SDS011;39692;53.114;7.060;2022-08-01T10:46:38;6.47;;;2.30;;
53781;SDS011;39692;53.114;7.060;2022-08-01T10:49:07;7.40;;;2.22;;
53781;SDS011;39692;53.114;7.060;2022-08-01T10:51:39;8.27;;;2.63;;
53781;SDS011;39692;53.114;7.060;2022-08-01T10:54:06;6.72;;;2.70;;
53781;SDS011;39692;53.114;7.060;2022-08-01T10:56:47;7.22;;;2.17;;
53781;SDS011;39692;53.114;7.060;2022-08-01T10:59:32;5.43;;;1.90;;
53781;SDS011;39692;53.114;7.060;2022-08-01T11:02:03;5.75;;;2.10;;
53781;SDS011;39692;53.114;7.060;2022-08-01T11:07:16;6.03;;;2.10;;
53781;SDS011;39692;53.114;7.060;2022-08-01T11:09:46;5.55;;;2.15;;
53781;SDS011;39692;53.114;7.060;2022-08-01T11:12:15;5.80;;;2.10;;
53781;SDS011;39692;53.114;7.060;2022-08-01T11:17:35;6.43;;;2.67;;
53781;SDS011;39692;53.114;7.060;2022-08-01T11:25:24;7.30;;;2.40;;
53781;SDS011;39692;53.114;7.060;2022-08-01T11:30:41;4.97;;;2.20;;
53781;SDS011;39692;53.114;7.060;2022-08-01T11:33:11;6.32;;;2.70;;
53781;SDS011;39692;53.114;7.060;2022-08-01T11:35:38;6.35;;;2.05;;
53781;SDS011;39692;53.114;7.060;2022-08-01T11:38:45;6.18;;;1.95;;
53781;SDS011;39692;53.114;7.060;2022-08-01T11:41:16;8.00;;;2.00;;
53781;SDS011;39692;53.114;7.060;2022-08-01T11:44:03;6.45;;;2.17;;
53781;SDS011;39692;53.114;7.060;2022-08-01T11:52:29;5.78;;;2.20;;
53781;SDS011;39692;53.114;7.060;2022-08-01T11:57:27;5.38;;;2.13;;
53781;SDS011;39692;53.114;7.060;2022-08-01T11:59:56;5.68;;;2.67;;
53781;SDS011;39692;53.114;7.060;2022-08-01T12:02:27;8.23;;;1.98;;
53781;SDS011;39692;53.114;7.060;2022-08-01T12:05:00;6.88;;;2.45;;
53781;SDS011;39692;53.114;7.060;2022-08-01T12:07:31;6.95;;;2.47;;
53781;SDS011;39692;53.114;7.060;2022-08-01T12:09:59;6.90;;;2.10;;
53781;SDS011;39692;53.114;7.060;2022-08-01T12:12:30;6.90;;;2.22;;
53781;SDS011;39692;53.114;7.060;2022-08-01T12:14:57;6.47;;;1.60;;
53781;SDS011;39692;53.114;7.060;2022-08-01T12:17:38;8.68;;;2.67;;
53781;SDS011;39692;53.114;7.060;2022-08-01T12:20:05;8.75;;;2.90;;
53781;SDS011;39692;53.114;7.060;2022-08-01T12:22:33;7.60;;;3.05;;
53781;SDS011;39692;53.114;7.060;2022-08-01T12:25:32;8.30;;;2.55;;
53781;SDS011;39692;53.114;7.060;2022-08-01T12:27:51;8.20;;;2.58;;
53781;SDS011;39692;53.114;7.060;2022-08-01T12:30:18;9.23;;;2.67;;
53781;SDS011;39692;53.114;7.060;2022-08-01T12:32:47;8.25;;;2.80;;
53781;SDS011;39692;53.114;7.060;2022-08-01T12:35:15;4.43;;;1.75;;
53781;SDS011;39692;53.114;7.060;2022-08-01T12:37:46;6.88;;;2.00;;
53781;SDS011;39692;53.114;7.060;2022-08-01T12:40:15;5.72;;;1.98;;
53781;SDS011;39692;53.114;7.060;2022-08-01T12:43:07;5.55;;;2.10;;
53781;SDS011;39692;53.114;7.060;2022-08-01T12:45:37;4.22;;;1.77;;
53781;SDS011;39692;53.114;7.060;2022-08-01T12:48:07;7.65;;;2.03;;
53781;SDS011;39692;53.114;7.060;2022-08-01T12:50:38;5.15;;;2.10;;
53781;SDS011;39692;53.114;7.060;2022-08-01T12:53:07;6.13;;;2.10;;
53781;SDS011;39692;53.114;7.060;2022-08-01T12:55:41;7.35;;;2.05;;
53781;SDS011;39692;53.114;7.060;2022-08-01T12:58:16;5.57;;;2.17;;
53781;SDS011;39692;53.114;7.060;2022-08-01T13:00:46;6.50;;;1.95;;
53781;SDS011;39692;53.114;7.060;2022-08-01T13:03:17;6.60;;;1.83;;
53781;SDS011;39692;53.114;7.060;2022-08-01T13:05:54;5.25;;;2.30;;
53781;SDS011;39692;53.114;7.060;2022-08-01T13:08:24;4.78;;;1.67;;
53781;SDS011;39692;53.114;7.060;2022-08-01T13:11:06;6.07;;;1.80;;
53781;SDS011;39692;53.114;7.060;2022-08-01T13:13:41;5.10;;;1.65;;
53781;SDS011;39692;53.114;7.060;2022-08-01T13:16:09;5.70;;;1.85;;
53781;SDS011;39692;53.114;7.060;2022-08-01T13:18:36;6.03;;;2.17;;
53781;SDS011;39692;53.114;7.060;2022-08-01T13:21:09;6.88;;;2.03;;
53781;SDS011;39692;53.114;7.060;2022-08-01T13:23:39;6.45;;;2.22;;
53781;SDS011;39692;53.114;7.060;2022-08-01T13:26:06;6.82;;;2.17;;
53781;SDS011;39692;53.114;7.060;2022-08-01T13:28:32;5.85;;;1.85;;
53781;SDS011;39692;53.114;7.060;2022-08-01T13:31:00;4.57;;;1.80;;
53781;SDS011;39692;53.114;7.060;2022-08-01T13:33:44;4.25;;;1.67;;
53781;SDS011;39692;53.114;7.060;2022-08-01T13:36:12;5.80;;;1.85;;
53781;SDS011;39692;53.114;7.060;2022-08-01T13:38:39;5.90;;;1.88;;
53781;SDS011;39692;53.114;7.060;2022-08-01T13:41:23;5.05;;;2.25;;
53781;SDS011;39692;53.114;7.060;2022-08-01T13:43:49;6.47;;;2.05;;
53781;SDS011;39692;53.114;7.060;2022-08-01T13:46:15;5.50;;;1.90;;
53781;SDS011;39692;53.114;7.060;2022-08-01T13:48:41;7.25;;;2.22;;
53781;SDS011;39692;53.114;7.060;2022-08-01T13:51:07;6.57;;;2.13;;
53781;SDS011;39692;53.114;7.060;2022-08-01T13:53:33;7.25;;;2.20;;
53781;SDS011;39692;53.114;7.060;2022-08-01T13:55:58;5.43;;;2.10;;
53781;SDS011;39692;53.114;7.060;2022-08-01T13:58:24;5.78;;;1.70;;
53781;SDS011;39692;53.114;7.060;2022-08-01T14:00:50;6.68;;;1.92;;
53781;SDS011;39692;53.114;7.060;2022-08-01T14:03:16;4.05;;;1.60;;
53781;SDS011;39692;53.114;7.060;2022-08-01T14:05:42;7.43;;;2.30;;
53781;SDS011;39692;53.114;7.060;2022-08-01T14:08:09;7.45;;;2.28;;
53781;SDS011;39692;53.114;7.060;2022-08-01T14:10:35;4.72;;;1.75;;
53781;SDS011;39692;53.114;7.060;2022-08-01T14:13:00;4.28;;;1.98;;
53781;SDS011;39692;53.114;7.060;2022-08-01T14:15:26;4.53;;;1.70;;
53781;SDS011;39692;53.114;7.060;2022-08-01T14:17:52;7.60;;;2.30;;
53781;SDS011;39692;53.114;7.060;2022-08-01T14:20:18;5.13;;;2.00;;
53781;SDS011;39692;53.114;7.060;2022-08-01T14:22:45;5.95;;;2.10;;
53781;SDS011;39692;53.114;7.060;2022-08-01T14:25:11;8.77;;;2.03;;
53781;SDS011;39692;53.114;7.060;2022-08-01T14:27:37;7.07;;;2.28;;
53781;SDS011;39692;53.114;7.060;2022-08-01T14:30:04;6.93;;;2.38;;
53781;SDS011;39692;53.114;7.060;2022-08-01T14:32:31;7.55;;;2.20;;
53781;SDS011;39692;53.114;7.060;2022-08-01T14:34:58;5.95;;;1.50;;
53781;SDS011;39692;53.114;7.060;2022-08-01T14:37:27;5.20;;;1.30;;
53781;SDS011;39692;53.114;7.060;2022-08-01T14:39:54;7.20;;;1.98;;
53781;SDS011;39692;53.114;7.060;2022-08-01T14:42:23;4.93;;;1.70;;
53781;SDS011;39692;53.114;7.060;2022-08-01T14:44:48;4.80;;;1.70;;
53781;SDS011;39692;53.114;7.060;2022-08-01T14:47:14;5.35;;;2.00;;
53781;SDS011;39692;53.114;7.060;2022-08-01T14:49:40;7.05;;;2.08;;
53781;SDS011;39692;53.114;7.060;2022-08-01T14:52:06;5.80;;;1.88;;
53781;SDS011;39692;53.114;7.060;2022-08-01T14:54:32;5.72;;;1.83;;
53781;SDS011;39692;53.114;7.060;2022-08-01T14:56:57;7.50;;;1.98;;
53781;SDS011;39692;53.114;7.060;2022-08-01T14:59:23;6.82;;;2.60;;
53781;SDS011;39692;53.114;7.060;2022-08-01T15:01:49;8.95;;;2.28;;
53781;SDS011;39692;53.114;7.060;2022-08-01T15:04:14;6.38;;;1.95;;
53781;SDS011;39692;53.114;7.060;2022-08-01T15:06:42;7.25;;;2.30;;
53781;SDS011;39692;53.114;7.060;2022-08-01T15:09:08;3.80;;;1.60;;
53781;SDS011;39692;53.114;7.060;2022-08-01T15:11:33;6.82;;;2.17;;
53781;SDS011;39692;53.114;7.060;2022-08-01T15:13:59;7.57;;;2.65;;
53781;SDS011;39692;53.114;7.060;2022-08-01T15:16:43;6.95;;;1.92;;
53781;SDS011;39692;53.114;7.060;2022-08-01T15:19:09;5.43;;;2.10;;
53781;SDS011;39692;53.114;7.060;2022-08-01T15:21:35;5.97;;;2.10;;
53781;SDS011;39692;53.114;7.060;2022-08-01T15:24:00;6.57;;;2.35;;
53781;SDS011;39692;53.114;7.060;2022-08-01T15:26:26;6.65;;;2.50;;
53781;SDS011;39692;53.114;7.060;2022-08-01T15:28:53;8.02;;;3.15;;
53781;SDS011;39692;53.114;7.060;2022-08-01T15:31:18;7.40;;;2.58;;
53781;SDS011;39692;53.114;7.060;2022-08-01T15:33:44;7.35;;;2.40;;
53781;SDS011;39692;53.114;7.060;2022-08-01T15:36:10;6.18;;;2.08;;